sensor_id;sensor_type;location;lat;lon;timestamp;P1;durP1;ratioP1;P2;durP2;ratioP2
11998;SDS011;40817;51.520;9.954;2023-07-28T00:02:23;3.92;;;0.60;;
11998;SDS011;40817;51.520;9.954;2023-07-28T00:04:50;2.50;;;0.45;;
11998;SDS011;40817;51.520;9.954;2023-07-28T00:07:18;3.50;;;0.93;;
11998;SDS011;40817;51.520;9.954;2023-07-28T00:09:45;4.22;;;0.80;;
11998;SDS011;40817;51.520;9.954;2023-07-28T00:12:15;4.18;;;0.63;;
11998;SDS011;40817;51.520;9.954;2023-07-28T00:14:42;5.97;;;0.57;;
11998;SDS011;40817;51.520;9.954;2023-07-28T00:17:10;1.98;;;0.50;;
11998;SDS011;40817;51.520;9.954;2023-07-28T00:19:39;1.63;;;0.32;;
11998;SDS011;40817;51.520;9.954;2023-07-28T00:22:06;3.42;;;0.70;;
11998;SDS011;40817;51.520;9.954;2023-07-28T00:24:33;2.85;;;0.63;;
11998;SDS011;40817;51.520;9.954;2023-07-28T00:27:01;1.25;;;0.40;;
11998;SDS011;40817;51.520;9.954;2023-07-28T00:29:28;3.30;;;0.70;;
11998;SDS011;40817;51.520;9.954;2023-07-28T00:31:56;2.42;;;0.55;;
11998;SDS011;40817;51.520;9.954;2023-07-28T00:34:23;5.68;;;1.02;;
11998;SDS011;40817;51.520;9.954;2023-07-28T00:36:52;2.35;;;0.55;;
11998;SDS011;40817;51.520;9.954;2023-07-28T00:39:19;2.00;;;0.75;;
11998;SDS011;40817;51.520;9.954;2023-07-28T00:41:47;3.83;;;0.70;;
11998;SDS011;40817;51.520;9.954;2023-07-28T00:44:14;2.05;;;0.55;;
11998;SDS011;40817;51.520;9.954;2023-07-28T00:46:42;5.68;;;0.50;;
11998;SDS011;40817;51.520;9.954;2023-07-28T00:49:10;1.25;;;0.45;;
11998;SDS011;40817;51.520;9.954;2023-07-28T00:51:38;2.70;;;0.40;;
11998;SDS011;40817;51.520;9.954;2023-07-28T00:54:07;3.10;;;1.02;;
11998;SDS011;40817;51.520;9.954;2023-07-28T00:56:35;1.33;;;0.50;;
11998;SDS011;40817;51.520;9.954;2023-07-28T00:59:03;5.30;;;0.60;;
11998;SDS011;40817;51.520;9.954;2023-07-28T01:01:30;6.38;;;0.85;;
11998;SDS011;40817;51.520;9.954;2023-07-28T01:03:58;0.88;;;0.40;;
11998;SDS011;40817;51.520;9.954;2023-07-28T01:06:26;2.08;;;0.50;;
11998;SDS011;40817;51.520;9.954;2023-07-28T01:09:09;1.10;;;0.57;;
11998;SDS011;40817;51.520;9.954;2023-07-28T01:11:53;1.17;;;0.50;;
11998;SDS011;40817;51.520;9.954;2023-07-28T01:14:21;1.98;;;0.60;;
11998;SDS011;40817;51.520;9.954;2023-07-28T01:16:48;3.03;;;0.65;;
11998;SDS011;40817;51.520;9.954;2023-07-28T01:19:17;3.63;;;0.68;;
11998;SDS011;40817;51.520;9.954;2023-07-28T01:21:47;3.22;;;0.98;;
11998;SDS011;40817;51.520;9.954;2023-07-28T01:24:27;4.55;;;0.88;;
11998;SDS011;40817;51.520;9.954;2023-07-28T01:27:09;2.63;;;0.70;;
11998;SDS011;40817;51.520;9.954;2023-07-28T01:29:37;1.95;;;0.45;;
11998;SDS011;40817;51.520;9.954;2023-07-28T01:32:06;0.95;;;0.73;;
11998;SDS011;40817;51.520;9.954;2023-07-28T01:34:34;0.85;;;0.52;;
11998;SDS011;40817;51.520;9.954;2023-07-28T01:37:02;1.45;;;0.70;;
11998;SDS011;40817;51.520;9.954;2023-07-28T01:39:30;4.60;;;0.90;;
11998;SDS011;40817;51.520;9.954;2023-07-28T01:41:58;4.10;;;0.70;;
11998;SDS011;40817;51.520;9.954;2023-07-28T01:44:27;1.15;;;0.60;;
11998;SDS011;40817;51.520;9.954;2023-07-28T01:46:55;8.55;;;0.85;;
11998;SDS011;40817;51.520;9.954;2023-07-28T01:49:22;3.13;;;0.50;;
11998;SDS011;40817;51.520;9.954;2023-07-28T01:51:50;1.70;;;0.50;;
11998;SDS011;40817;51.520;9.954;2023-07-28T01:54:17;6.53;;;0.80;;
11998;SDS011;40817;51.520;9.954;2023-07-28T01:56:45;1.23;;;0.60;;
11998;SDS011;40817;51.520;9.954;2023-07-28T01:59:12;4.15;;;1.15;;
11998;SDS011;40817;51.520;9.954;2023-07-28T02:01:41;1.80;;;0.60;;
11998;SDS011;40817;51.520;9.954;2023-07-28T02:04:09;2.08;;;0.60;;
11998;SDS011;40817;51.520;9.954;2023-07-28T02:06:37;1.70;;;0.70;;
11998;SDS011;40817;51.520;9.954;2023-07-28T02:09:04;2.30;;;0.80;;
11998;SDS011;40817;51.520;9.954;2023-07-28T02:11:32;1.58;;;0.50;;
11998;SDS011;40817;51.520;9.954;2023-07-28T02:13:59;1.27;;;0.50;;
11998;SDS011;40817;51.520;9.954;2023-07-28T02:16:27;1.73;;;0.70;;
11998;SDS011;40817;51.520;9.954;2023-07-28T02:18:57;0.73;;;0.50;;
11998;SDS011;40817;51.520;9.954;2023-07-28T02:21:24;2.53;;;0.80;;
11998;SDS011;40817;51.520;9.954;2023-07-28T02:23:53;2.85;;;0.70;;
11998;SDS011;40817;51.520;9.954;2023-07-28T02:26:20;1.73;;;0.70;;
11998;SDS011;40817;51.520;9.954;2023-07-28T02:28:48;2.17;;;0.90;;
11998;SDS011;40817;51.520;9.954;2023-07-28T02:31:15;4.47;;;0.60;;
11998;SDS011;40817;51.520;9.954;2023-07-28T02:33:43;1.50;;;0.60;;
11998;SDS011;40817;51.520;9.954;2023-07-28T02:36:12;2.92;;;0.73;;
11998;SDS011;40817;51.520;9.954;2023-07-28T02:38:39;4.95;;;0.60;;
11998;SDS011;40817;51.520;9.954;2023-07-28T02:41:06;2.20;;;0.50;;
11998;SDS011;40817;51.520;9.954;2023-07-28T02:43:34;1.80;;;0.55;;
11998;SDS011;40817;51.520;9.954;2023-07-28T02:46:01;1.38;;;0.68;;
11998;SDS011;40817;51.520;9.954;2023-07-28T02:48:29;1.85;;;0.60;;
11998;SDS011;40817;51.520;9.954;2023-07-28T02:50:57;1.80;;;0.50;;
11998;SDS011;40817;51.520;9.954;2023-07-28T02:53:26;1.35;;;0.60;;
11998;SDS011;40817;51.520;9.954;2023-07-28T02:55:53;2.08;;;0.55;;
11998;SDS011;40817;51.520;9.954;2023-07-28T02:58:22;1.40;;;0.60;;
11998;SDS011;40817;51.520;9.954;2023-07-28T03:00:51;2.33;;;0.77;;
11998;SDS011;40817;51.520;9.954;2023-07-28T03:03:38;2.22;;;0.68;;
11998;SDS011;40817;51.520;9.954;2023-07-28T03:06:06;2.45;;;0.63;;
11998;SDS011;40817;51.520;9.954;2023-07-28T03:08:35;4.70;;;0.88;;
11998;SDS011;40817;51.520;9.954;2023-07-28T03:11:03;3.67;;;0.85;;
11998;SDS011;40817;51.520;9.954;2023-07-28T03:13:29;2.00;;;0.60;;
11998;SDS011;40817;51.520;9.954;2023-07-28T03:15:57;1.95;;;0.95;;
11998;SDS011;40817;51.520;9.954;2023-07-28T03:18:24;2.33;;;0.50;;
11998;SDS011;40817;51.520;9.954;2023-07-28T03:20:51;1.48;;;0.60;;
11998;SDS011;40817;51.520;9.954;2023-07-28T03:23:20;0.80;;;0.50;;
11998;SDS011;40817;51.520;9.954;2023-07-28T03:25:48;5.47;;;0.90;;
11998;SDS011;40817;51.520;9.954;2023-07-28T03:28:16;1.20;;;0.63;;
11998;SDS011;40817;51.520;9.954;2023-07-28T03:30:43;1.52;;;0.63;;
11998;SDS011;40817;51.520;9.954;2023-07-28T03:33:11;1.73;;;0.60;;
11998;SDS011;40817;51.520;9.954;2023-07-28T03:35:38;2.83;;;0.60;;
11998;SDS011;40817;51.520;9.954;2023-07-28T03:38:06;2.45;;;0.70;;
11998;SDS011;40817;51.520;9.954;2023-07-28T03:40:33;1.45;;;0.60;;
11998;SDS011;40817;51.520;9.954;2023-07-28T03:43:02;2.33;;;0.82;;
11998;SDS011;40817;51.520;9.954;2023-07-28T03:45:30;1.33;;;0.77;;
11998;SDS011;40817;51.520;9.954;2023-07-28T03:47:57;3.75;;;0.70;;
11998;SDS011;40817;51.520;9.954;2023-07-28T03:50:25;1.88;;;0.70;;
11998;SDS011;40817;51.520;9.954;2023-07-28T03:52:53;1.33;;;0.70;;
11998;SDS011;40817;51.520;9.954;2023-07-28T03:55:24;1.08;;;0.55;;
11998;SDS011;40817;51.520;9.954;2023-07-28T03:57:51;2.22;;;0.90;;
11998;SDS011;40817;51.520;9.954;2023-07-28T04:00:20;0.90;;;0.60;;
11998;SDS011;40817;51.520;9.954;2023-07-28T04:02:49;4.53;;;0.85;;
11998;SDS011;40817;51.520;9.954;2023-07-28T04:05:17;2.13;;;0.95;;
11998;SDS011;40817;51.520;9.954;2023-07-28T04:07:44;1.80;;;0.70;;
11998;SDS011;40817;51.520;9.954;2023-07-28T04:10:12;1.42;;;0.47;;
11998;SDS011;40817;51.520;9.954;2023-07-28T04:12:39;0.85;;;0.50;;
11998;SDS011;40817;51.520;9.954;2023-07-28T04:15:07;3.50;;;0.95;;
11998;SDS011;40817;51.520;9.954;2023-07-28T04:17:37;2.75;;;1.02;;
11998;SDS011;40817;51.520;9.954;2023-07-28T04:20:06;4.07;;;0.90;;
11998;SDS011;40817;51.520;9.954;2023-07-28T04:22:36;2.05;;;0.70;;
11998;SDS011;40817;51.520;9.954;2023-07-28T04:25:03;2.60;;;0.80;;
11998;SDS011;40817;51.520;9.954;2023-07-28T04:27:33;1.92;;;1.02;;
11998;SDS011;40817;51.520;9.954;2023-07-28T04:30:00;2.17;;;0.75;;
11998;SDS011;40817;51.520;9.954;2023-07-28T04:32:38;2.75;;;0.80;;
11998;SDS011;40817;51.520;9.954;2023-07-28T04:35:06;1.50;;;1.00;;
11998;SDS011;40817;51.520;9.954;2023-07-28T04:37:33;1.30;;;0.70;;
11998;SDS011;40817;51.520;9.954;2023-07-28T04:40:01;2.13;;;0.70;;
11998;SDS011;40817;51.520;9.954;2023-07-28T04:42:30;2.58;;;0.80;;
11998;SDS011;40817;51.520;9.954;2023-07-28T04:44:57;2.03;;;0.90;;
11998;SDS011;40817;51.520;9.954;2023-07-28T04:47:24;1.58;;;0.70;;
11998;SDS011;40817;51.520;9.954;2023-07-28T04:49:53;2.17;;;0.93;;
11998;SDS011;40817;51.520;9.954;2023-07-28T04:52:20;1.60;;;0.93;;
11998;SDS011;40817;51.520;9.954;2023-07-28T04:54:48;1.83;;;0.73;;
11998;SDS011;40817;51.520;9.954;2023-07-28T04:57:15;1.48;;;0.75;;
11998;SDS011;40817;51.520;9.954;2023-07-28T04:59:44;2.78;;;0.60;;
11998;SDS011;40817;51.520;9.954;2023-07-28T05:02:12;4.80;;;1.08;;
11998;SDS011;40817;51.520;9.954;2023-07-28T05:04:39;2.42;;;0.65;;
11998;SDS011;40817;51.520;9.954;2023-07-28T05:07:08;2.25;;;0.80;;
11998;SDS011;40817;51.520;9.954;2023-07-28T05:09:35;1.17;;;0.68;;
11998;SDS011;40817;51.520;9.954;2023-07-28T05:12:03;1.83;;;0.70;;
11998;SDS011;40817;51.520;9.954;2023-07-28T05:14:32;2.28;;;1.20;;
11998;SDS011;40817;51.520;9.954;2023-07-28T05:16:59;1.73;;;0.60;;
11998;SDS011;40817;51.520;9.954;2023-07-28T05:19:27;2.08;;;0.70;;
11998;SDS011;40817;51.520;9.954;2023-07-28T05:21:54;1.20;;;0.63;;
11998;SDS011;40817;51.520;9.954;2023-07-28T05:24:23;1.20;;;0.68;;
11998;SDS011;40817;51.520;9.954;2023-07-28T05:26:50;1.02;;;0.50;;
11998;SDS011;40817;51.520;9.954;2023-07-28T05:29:18;1.75;;;0.70;;
11998;SDS011;40817;51.520;9.954;2023-07-28T05:31:46;1.67;;;0.65;;
11998;SDS011;40817;51.520;9.954;2023-07-28T05:34:13;1.17;;;0.77;;
11998;SDS011;40817;51.520;9.954;2023-07-28T05:36:41;1.33;;;0.52;;
11998;SDS011;40817;51.520;9.954;2023-07-28T05:39:09;1.10;;;0.50;;
11998;SDS011;40817;51.520;9.954;2023-07-28T05:41:38;2.45;;;0.80;;
11998;SDS011;40817;51.520;9.954;2023-07-28T05:44:06;1.20;;;0.60;;
11998;SDS011;40817;51.520;9.954;2023-07-28T05:46:33;1.05;;;0.60;;
11998;SDS011;40817;51.520;9.954;2023-07-28T05:49:01;1.98;;;0.45;;
11998;SDS011;40817;51.520;9.954;2023-07-28T05:51:29;1.42;;;0.70;;
11998;SDS011;40817;51.520;9.954;2023-07-28T05:53:56;1.15;;;0.60;;
11998;SDS011;40817;51.520;9.954;2023-07-28T05:56:24;1.73;;;0.63;;
11998;SDS011;40817;51.520;9.954;2023-07-28T05:58:53;0.90;;;0.40;;
11998;SDS011;40817;51.520;9.954;2023-07-28T06:01:22;0.98;;;0.65;;
11998;SDS011;40817;51.520;9.954;2023-07-28T06:03:51;0.80;;;0.50;;
11998;SDS011;40817;51.520;9.954;2023-07-28T06:06:24;4.50;;;0.55;;
11998;SDS011;40817;51.520;9.954;2023-07-28T06:08:52;2.25;;;0.65;;
11998;SDS011;40817;51.520;9.954;2023-07-28T06:11:20;0.80;;;0.50;;
11998;SDS011;40817;51.520;9.954;2023-07-28T06:13:48;1.58;;;0.40;;
11998;SDS011;40817;51.520;9.954;2023-07-28T06:16:17;0.50;;;0.40;;
11998;SDS011;40817;51.520;9.954;2023-07-28T06:18:44;1.38;;;0.40;;
11998;SDS011;40817;51.520;9.954;2023-07-28T06:21:12;0.55;;;0.40;;
11998;SDS011;40817;51.520;9.954;2023-07-28T06:23:39;1.30;;;0.40;;
11998;SDS011;40817;51.520;9.954;2023-07-28T06:26:07;1.80;;;0.60;;
11998;SDS011;40817;51.520;9.954;2023-07-28T06:28:34;1.88;;;0.50;;
11998;SDS011;40817;51.520;9.954;2023-07-28T06:31:02;3.80;;;0.70;;
11998;SDS011;40817;51.520;9.954;2023-07-28T06:33:32;0.95;;;0.50;;
11998;SDS011;40817;51.520;9.954;2023-07-28T06:36:00;1.10;;;0.68;;
11998;SDS011;40817;51.520;9.954;2023-07-28T06:38:28;1.48;;;0.50;;
11998;SDS011;40817;51.520;9.954;2023-07-28T06:40:55;0.90;;;0.47;;
11998;SDS011;40817;51.520;9.954;2023-07-28T06:43:23;2.33;;;0.50;;
11998;SDS011;40817;51.520;9.954;2023-07-28T06:45:52;0.95;;;0.50;;
11998;SDS011;40817;51.520;9.954;2023-07-28T06:48:20;2.25;;;0.40;;
11998;SDS011;40817;51.520;9.954;2023-07-28T06:50:49;0.60;;;0.50;;
11998;SDS011;40817;51.520;9.954;2023-07-28T06:53:16;1.88;;;0.68;;
11998;SDS011;40817;51.520;9.954;2023-07-28T06:55:44;2.20;;;0.52;;
11998;SDS011;40817;51.520;9.954;2023-07-28T06:58:11;1.38;;;0.68;;
11998;SDS011;40817;51.520;9.954;2023-07-28T07:00:39;1.58;;;0.50;;
11998;SDS011;40817;51.520;9.954;2023-07-28T07:03:06;1.08;;;0.50;;
11998;SDS011;40817;51.520;9.954;2023-07-28T07:05:34;1.85;;;0.50;;
11998;SDS011;40817;51.520;9.954;2023-07-28T07:08:03;2.03;;;0.40;;
11998;SDS011;40817;51.520;9.954;2023-07-28T07:10:30;1.02;;;0.50;;
11998;SDS011;40817;51.520;9.954;2023-07-28T07:12:58;2.38;;;0.60;;
11998;SDS011;40817;51.520;9.954;2023-07-28T07:15:25;2.90;;;0.70;;
11998;SDS011;40817;51.520;9.954;2023-07-28T07:17:54;4.15;;;0.68;;
11998;SDS011;40817;51.520;9.954;2023-07-28T07:20:21;1.73;;;0.57;;
11998;SDS011;40817;51.520;9.954;2023-07-28T07:22:49;0.93;;;0.50;;
11998;SDS011;40817;51.520;9.954;2023-07-28T07:25:18;1.67;;;0.52;;
11998;SDS011;40817;51.520;9.954;2023-07-28T07:27:46;1.70;;;0.60;;
11998;SDS011;40817;51.520;9.954;2023-07-28T07:30:13;3.42;;;0.98;;
11998;SDS011;40817;51.520;9.954;2023-07-28T07:32:41;1.92;;;0.60;;
11998;SDS011;40817;51.520;9.954;2023-07-28T07:35:08;1.05;;;0.70;;
11998;SDS011;40817;51.520;9.954;2023-07-28T07:37:37;2.88;;;0.77;;
11998;SDS011;40817;51.520;9.954;2023-07-28T07:40:06;2.60;;;0.60;;
11998;SDS011;40817;51.520;9.954;2023-07-28T07:42:43;2.67;;;0.75;;
11998;SDS011;40817;51.520;9.954;2023-07-28T07:45:14;2.55;;;0.70;;
11998;SDS011;40817;51.520;9.954;2023-07-28T07:47:42;1.83;;;0.52;;
11998;SDS011;40817;51.520;9.954;2023-07-28T07:50:10;2.30;;;0.60;;
11998;SDS011;40817;51.520;9.954;2023-07-28T07:52:38;1.65;;;0.82;;
11998;SDS011;40817;51.520;9.954;2023-07-28T07:55:06;1.50;;;0.63;;
11998;SDS011;40817;51.520;9.954;2023-07-28T07:57:36;1.13;;;0.80;;
11998;SDS011;40817;51.520;9.954;2023-07-28T08:00:06;1.10;;;0.80;;
11998;SDS011;40817;51.520;9.954;2023-07-28T08:02:36;1.15;;;0.70;;
11998;SDS011;40817;51.520;9.954;2023-07-28T08:05:04;1.38;;;0.85;;
11998;SDS011;40817;51.520;9.954;2023-07-28T08:07:33;1.27;;;0.73;;
11998;SDS011;40817;51.520;9.954;2023-07-28T08:10:00;1.40;;;0.77;;
11998;SDS011;40817;51.520;9.954;2023-07-28T08:12:28;3.20;;;1.02;;
11998;SDS011;40817;51.520;9.954;2023-07-28T08:14:56;2.13;;;0.73;;
11998;SDS011;40817;51.520;9.954;2023-07-28T08:17:25;3.17;;;0.90;;
11998;SDS011;40817;51.520;9.954;2023-07-28T08:19:52;1.60;;;0.80;;
11998;SDS011;40817;51.520;9.954;2023-07-28T08:22:20;1.77;;;0.80;;
11998;SDS011;40817;51.520;9.954;2023-07-28T08:24:47;3.67;;;0.90;;
11998;SDS011;40817;51.520;9.954;2023-07-28T08:27:15;0.95;;;0.60;;
11998;SDS011;40817;51.520;9.954;2023-07-28T08:29:42;2.78;;;0.70;;
11998;SDS011;40817;51.520;9.954;2023-07-28T08:32:10;2.17;;;0.80;;
11998;SDS011;40817;51.520;9.954;2023-07-28T08:34:39;1.98;;;0.90;;
11998;SDS011;40817;51.520;9.954;2023-07-28T08:37:07;2.88;;;0.85;;
11998;SDS011;40817;51.520;9.954;2023-07-28T08:39:35;2.42;;;0.80;;
11998;SDS011;40817;51.520;9.954;2023-07-28T08:42:03;2.80;;;0.80;;
11998;SDS011;40817;51.520;9.954;2023-07-28T08:44:32;3.30;;;0.95;;
11998;SDS011;40817;51.520;9.954;2023-07-28T08:47:01;3.42;;;0.80;;
11998;SDS011;40817;51.520;9.954;2023-07-28T08:49:30;2.45;;;0.90;;
11998;SDS011;40817;51.520;9.954;2023-07-28T08:52:02;1.65;;;1.00;;
11998;SDS011;40817;51.520;9.954;2023-07-28T08:54:32;1.95;;;0.90;;
11998;SDS011;40817;51.520;9.954;2023-07-28T08:57:00;2.25;;;0.80;;
11998;SDS011;40817;51.520;9.954;2023-07-28T08:59:29;1.88;;;0.70;;
11998;SDS011;40817;51.520;9.954;2023-07-28T09:01:57;2.35;;;0.85;;
11998;SDS011;40817;51.520;9.954;2023-07-28T09:04:45;2.25;;;0.70;;
11998;SDS011;40817;51.520;9.954;2023-07-28T09:07:35;2.20;;;0.75;;
11998;SDS011;40817;51.520;9.954;2023-07-28T09:10:23;2.50;;;0.73;;
11998;SDS011;40817;51.520;9.954;2023-07-28T09:13:11;2.20;;;0.60;;
11998;SDS011;40817;51.520;9.954;2023-07-28T09:15:59;1.30;;;0.60;;
11998;SDS011;40817;51.520;9.954;2023-07-28T09:18:46;1.85;;;0.50;;
11998;SDS011;40817;51.520;9.954;2023-07-28T09:24:24;2.53;;;1.70;;
11998;SDS011;40817;51.520;9.954;2023-07-28T09:27:21;2.03;;;0.70;;
11998;SDS011;40817;51.520;9.954;2023-07-28T09:29:55;2.50;;;0.80;;
11998;SDS011;40817;51.520;9.954;2023-07-28T09:32:26;2.58;;;0.70;;
11998;SDS011;40817;51.520;9.954;2023-07-28T09:35:05;1.45;;;0.60;;
11998;SDS011;40817;51.520;9.954;2023-07-28T09:37:39;2.20;;;1.10;;
11998;SDS011;40817;51.520;9.954;2023-07-28T09:40:12;0.98;;;0.70;;
11998;SDS011;40817;51.520;9.954;2023-07-28T09:42:45;1.65;;;0.93;;
11998;SDS011;40817;51.520;9.954;2023-07-28T09:45:15;2.63;;;0.80;;
11998;SDS011;40817;51.520;9.954;2023-07-28T09:47:45;1.60;;;0.90;;
11998;SDS011;40817;51.520;9.954;2023-07-28T09:50:14;1.58;;;0.82;;
11998;SDS011;40817;51.520;9.954;2023-07-28T09:52:45;1.13;;;0.85;;
11998;SDS011;40817;51.520;9.954;2023-07-28T09:55:16;1.60;;;0.85;;
11998;SDS011;40817;51.520;9.954;2023-07-28T09:57:45;2.15;;;0.80;;
11998;SDS011;40817;51.520;9.954;2023-07-28T10:00:18;1.00;;;0.80;;
11998;SDS011;40817;51.520;9.954;2023-07-28T10:02:49;4.63;;;1.20;;
11998;SDS011;40817;51.520;9.954;2023-07-28T10:05:17;1.25;;;0.90;;
11998;SDS011;40817;51.520;9.954;2023-07-28T10:07:45;2.40;;;1.00;;
11998;SDS011;40817;51.520;9.954;2023-07-28T10:10:16;2.67;;;0.90;;
11998;SDS011;40817;51.520;9.954;2023-07-28T10:12:45;2.35;;;0.88;;
11998;SDS011;40817;51.520;9.954;2023-07-28T10:15:15;3.78;;;1.25;;
11998;SDS011;40817;51.520;9.954;2023-07-28T10:17:45;4.05;;;1.23;;
11998;SDS011;40817;51.520;9.954;2023-07-28T10:20:27;1.67;;;1.10;;
11998;SDS011;40817;51.520;9.954;2023-07-28T10:23:01;2.25;;;1.10;;
11998;SDS011;40817;51.520;9.954;2023-07-28T10:25:39;1.77;;;1.23;;
11998;SDS011;40817;51.520;9.954;2023-07-28T10:28:24;1.40;;;0.95;;
11998;SDS011;40817;51.520;9.954;2023-07-28T10:30:56;2.58;;;1.40;;
11998;SDS011;40817;51.520;9.954;2023-07-28T10:33:26;1.67;;;1.20;;
11998;SDS011;40817;51.520;9.954;2023-07-28T10:36:00;2.00;;;1.30;;
11998;SDS011;40817;51.520;9.954;2023-07-28T10:38:39;1.95;;;1.30;;
11998;SDS011;40817;51.520;9.954;2023-07-28T10:41:11;2.17;;;1.27;;
11998;SDS011;40817;51.520;9.954;2023-07-28T10:43:41;1.73;;;1.35;;
11998;SDS011;40817;51.520;9.954;2023-07-28T10:46:11;2.45;;;1.60;;
11998;SDS011;40817;51.520;9.954;2023-07-28T10:48:42;2.35;;;1.20;;
11998;SDS011;40817;51.520;9.954;2023-07-28T10:51:12;4.47;;;1.50;;
11998;SDS011;40817;51.520;9.954;2023-07-28T10:53:50;2.83;;;1.50;;
11998;SDS011;40817;51.520;9.954;2023-07-28T10:56:19;3.03;;;1.30;;
11998;SDS011;40817;51.520;9.954;2023-07-28T10:58:55;2.45;;;1.10;;
11998;SDS011;40817;51.520;9.954;2023-07-28T11:01:29;1.63;;;1.10;;
11998;SDS011;40817;51.520;9.954;2023-07-28T11:04:05;1.98;;;1.10;;
11998;SDS011;40817;51.520;9.954;2023-07-28T11:06:35;2.45;;;1.10;;
11998;SDS011;40817;51.520;9.954;2023-07-28T11:09:05;2.40;;;1.08;;
11998;SDS011;40817;51.520;9.954;2023-07-28T11:11:35;1.77;;;1.27;;
11998;SDS011;40817;51.520;9.954;2023-07-28T11:14:04;2.75;;;1.40;;
11998;SDS011;40817;51.520;9.954;2023-07-28T11:16:33;3.40;;;1.50;;
11998;SDS011;40817;51.520;9.954;2023-07-28T11:19:03;2.40;;;1.60;;
11998;SDS011;40817;51.520;9.954;2023-07-28T11:21:36;2.05;;;1.40;;
11998;SDS011;40817;51.520;9.954;2023-07-28T11:24:04;2.97;;;1.73;;
11998;SDS011;40817;51.520;9.954;2023-07-28T11:26:35;2.67;;;1.63;;
11998;SDS011;40817;51.520;9.954;2023-07-28T11:29:03;2.10;;;1.50;;
11998;SDS011;40817;51.520;9.954;2023-07-28T11:31:32;4.13;;;2.10;;
11998;SDS011;40817;51.520;9.954;2023-07-28T11:34:00;1.90;;;1.60;;
11998;SDS011;40817;51.520;9.954;2023-07-28T11:36:28;2.47;;;1.60;;
11998;SDS011;40817;51.520;9.954;2023-07-28T11:38:57;4.38;;;1.80;;
11998;SDS011;40817;51.520;9.954;2023-07-28T11:41:30;5.03;;;1.90;;
11998;SDS011;40817;51.520;9.954;2023-07-28T11:44:00;4.63;;;2.00;;
11998;SDS011;40817;51.520;9.954;2023-07-28T11:46:33;2.90;;;1.98;;
11998;SDS011;40817;51.520;9.954;2023-07-28T11:49:10;3.42;;;1.60;;
11998;SDS011;40817;51.520;9.954;2023-07-28T11:54:10;2.55;;;1.60;;
11998;SDS011;40817;51.520;9.954;2023-07-28T11:56:40;2.05;;;1.60;;
11998;SDS011;40817;51.520;9.954;2023-07-28T11:59:10;3.17;;;2.05;;
11998;SDS011;40817;51.520;9.954;2023-07-28T12:01:50;2.22;;;1.70;;
11998;SDS011;40817;51.520;9.954;2023-07-28T12:04:21;2.30;;;1.40;;
11998;SDS011;40817;51.520;9.954;2023-07-28T12:07:05;2.90;;;1.88;;
11998;SDS011;40817;51.520;9.954;2023-07-28T12:09:49;3.92;;;2.00;;
11998;SDS011;40817;51.520;9.954;2023-07-28T12:12:18;2.22;;;1.70;;
11998;SDS011;40817;51.520;9.954;2023-07-28T12:14:49;2.33;;;1.80;;
11998;SDS011;40817;51.520;9.954;2023-07-28T12:17:17;3.50;;;1.80;;
11998;SDS011;40817;51.520;9.954;2023-07-28T12:20:01;2.42;;;1.80;;
11998;SDS011;40817;51.520;9.954;2023-07-28T12:22:36;3.42;;;1.67;;
11998;SDS011;40817;51.520;9.954;2023-07-28T12:25:04;3.47;;;1.67;;
11998;SDS011;40817;51.520;9.954;2023-07-28T12:27:32;2.40;;;1.58;;
11998;SDS011;40817;51.520;9.954;2023-07-28T12:30:03;4.10;;;1.98;;
11998;SDS011;40817;51.520;9.954;2023-07-28T12:32:34;2.22;;;1.60;;
11998;SDS011;40817;51.520;9.954;2023-07-28T12:35:01;2.42;;;1.73;;
11998;SDS011;40817;51.520;9.954;2023-07-28T12:37:29;3.40;;;1.40;;
11998;SDS011;40817;51.520;9.954;2023-07-28T12:39:56;2.25;;;1.40;;
11998;SDS011;40817;51.520;9.954;2023-07-28T12:42:24;2.15;;;1.33;;
11998;SDS011;40817;51.520;9.954;2023-07-28T12:44:51;1.83;;;1.48;;
11998;SDS011;40817;51.520;9.954;2023-07-28T12:47:20;2.42;;;1.55;;
11998;SDS011;40817;51.520;9.954;2023-07-28T12:49:47;1.63;;;1.20;;
11998;SDS011;40817;51.520;9.954;2023-07-28T12:52:15;2.90;;;1.45;;
11998;SDS011;40817;51.520;9.954;2023-07-28T12:54:42;2.97;;;1.23;;
11998;SDS011;40817;51.520;9.954;2023-07-28T12:57:10;1.55;;;1.30;;
11998;SDS011;40817;51.520;9.954;2023-07-28T12:59:37;2.95;;;1.35;;
11998;SDS011;40817;51.520;9.954;2023-07-28T13:02:05;3.53;;;1.20;;
11998;SDS011;40817;51.520;9.954;2023-07-28T13:04:34;3.80;;;1.20;;
11998;SDS011;40817;51.520;9.954;2023-07-28T13:07:01;2.05;;;1.20;;
11998;SDS011;40817;51.520;9.954;2023-07-28T13:09:29;2.78;;;1.35;;
11998;SDS011;40817;51.520;9.954;2023-07-28T13:11:56;2.85;;;1.15;;
11998;SDS011;40817;51.520;9.954;2023-07-28T13:14:24;3.13;;;1.27;;
11998;SDS011;40817;51.520;9.954;2023-07-28T13:16:51;2.30;;;1.35;;
11998;SDS011;40817;51.520;9.954;2023-07-28T13:19:19;2.78;;;1.40;;
11998;SDS011;40817;51.520;9.954;2023-07-28T13:21:48;1.73;;;1.13;;
11998;SDS011;40817;51.520;9.954;2023-07-28T13:24:15;3.17;;;1.80;;
11998;SDS011;40817;51.520;9.954;2023-07-28T13:26:43;4.43;;;1.98;;
11998;SDS011;40817;51.520;9.954;2023-07-28T13:29:10;3.13;;;1.70;;
11998;SDS011;40817;51.520;9.954;2023-07-28T13:31:38;1.77;;;1.33;;
11998;SDS011;40817;51.520;9.954;2023-07-28T13:34:05;1.67;;;1.40;;
11998;SDS011;40817;51.520;9.954;2023-07-28T13:36:33;1.85;;;1.48;;
11998;SDS011;40817;51.520;9.954;2023-07-28T13:39:02;1.92;;;1.40;;
11998;SDS011;40817;51.520;9.954;2023-07-28T13:41:31;5.72;;;1.80;;
11998;SDS011;40817;51.520;9.954;2023-07-28T13:43:58;1.45;;;1.20;;
11998;SDS011;40817;51.520;9.954;2023-07-28T13:46:26;2.97;;;1.55;;
11998;SDS011;40817;51.520;9.954;2023-07-28T13:48:54;2.97;;;1.35;;
11998;SDS011;40817;51.520;9.954;2023-07-28T13:51:21;2.88;;;1.42;;
11998;SDS011;40817;51.520;9.954;2023-07-28T13:53:48;3.03;;;1.70;;
11998;SDS011;40817;51.520;9.954;2023-07-28T13:56:17;5.47;;;2.30;;
11998;SDS011;40817;51.520;9.954;2023-07-28T13:58:45;3.35;;;1.48;;
11998;SDS011;40817;51.520;9.954;2023-07-28T14:01:12;4.78;;;1.95;;
11998;SDS011;40817;51.520;9.954;2023-07-28T14:03:40;3.70;;;2.03;;
11998;SDS011;40817;51.520;9.954;2023-07-28T14:06:07;3.13;;;1.67;;
11998;SDS011;40817;51.520;9.954;2023-07-28T14:08:35;3.20;;;2.30;;
11998;SDS011;40817;51.520;9.954;2023-07-28T14:11:02;4.85;;;2.10;;
11998;SDS011;40817;51.520;9.954;2023-07-28T14:13:31;3.38;;;2.33;;
11998;SDS011;40817;51.520;9.954;2023-07-28T14:15:58;2.90;;;1.92;;
11998;SDS011;40817;51.520;9.954;2023-07-28T14:18:26;5.47;;;2.15;;
11998;SDS011;40817;51.520;9.954;2023-07-28T14:20:53;4.53;;;2.03;;
11998;SDS011;40817;51.520;9.954;2023-07-28T14:23:22;3.67;;;2.20;;
11998;SDS011;40817;51.520;9.954;2023-07-28T14:25:51;3.33;;;2.10;;
11998;SDS011;40817;51.520;9.954;2023-07-28T14:28:19;2.53;;;1.98;;
11998;SDS011;40817;51.520;9.954;2023-07-28T14:30:50;2.65;;;2.13;;
11998;SDS011;40817;51.520;9.954;2023-07-28T14:33:18;4.65;;;2.33;;
11998;SDS011;40817;51.520;9.954;2023-07-28T14:35:46;3.38;;;2.40;;
11998;SDS011;40817;51.520;9.954;2023-07-28T14:38:15;2.22;;;1.85;;
11998;SDS011;40817;51.520;9.954;2023-07-28T14:40:43;5.03;;;2.20;;
11998;SDS011;40817;51.520;9.954;2023-07-28T14:43:14;3.58;;;2.33;;
11998;SDS011;40817;51.520;9.954;2023-07-28T14:45:41;3.95;;;1.70;;
11998;SDS011;40817;51.520;9.954;2023-07-28T14:48:10;2.30;;;1.75;;
11998;SDS011;40817;51.520;9.954;2023-07-28T14:50:38;3.42;;;1.90;;
11998;SDS011;40817;51.520;9.954;2023-07-28T14:55:58;2.95;;;2.28;;
11998;SDS011;40817;51.520;9.954;2023-07-28T14:58:27;4.57;;;2.40;;
11998;SDS011;40817;51.520;9.954;2023-07-28T15:00:55;3.55;;;2.25;;
11998;SDS011;40817;51.520;9.954;2023-07-28T15:03:25;3.88;;;2.38;;
11998;SDS011;40817;51.520;9.954;2023-07-28T15:05:55;2.90;;;2.33;;
11998;SDS011;40817;51.520;9.954;2023-07-28T15:08:23;4.78;;;2.30;;
11998;SDS011;40817;51.520;9.954;2023-07-28T15:10:50;7.07;;;2.22;;